Terminal Aerodrome Forecast
Issued by NWS Shreveport, LA

Home | Current Version | Previous Version | Text Only | Print | Product List | Glossary On
Versions: 1 2 3 4 5 6 7 8 9 10 11 12 13 14 15 16 17 18 19 20 21 22
877
FTUS44 KSHV 012355
TAFSHV
TAF
KSHV 012355Z 0200/0224 35007KT P6SM SCT050
     FM020100 13007KT P6SM VCSH BKN045
     FM020300 VRB04KT P6SM SCT045 SCT250
     FM020600 VRB04KT P6SM BKN040
     FM020900 VRB04KT P6SM BKN020
     FM021200 VRB04KT P6SM VCTS BKN020CB
     FM021800 35010KT P6SM BKN020=

USA.gov is the U.S. government's official web portal to all federal, state and local government web resources and services.